sensor_id;sensor_type;location;lat;lon;timestamp;temperature;humidity
13472;DHT22;6808;49.444;11.034;2023-02-15T00:01:21;-0.10;99.90
13472;DHT22;6808;49.444;11.034;2023-02-15T00:03:50;-0.20;99.90
13472;DHT22;6808;49.444;11.034;2023-02-15T00:06:16;-0.20;99.90
13472;DHT22;6808;49.444;11.034;2023-02-15T00:08:42;-0.30;99.90
13472;DHT22;6808;49.444;11.034;2023-02-15T00:11:12;-0.30;99.90
13472;DHT22;6808;49.444;11.034;2023-02-15T00:13:39;-0.20;99.90
13472;DHT22;6808;49.444;11.034;2023-02-15T00:16:10;-0.10;99.90
13472;DHT22;6808;49.444;11.034;2023-02-15T00:18:37;0.00;99.90
13472;DHT22;6808;49.444;11.034;2023-02-15T00:21:05;-0.10;99.90
13472;DHT22;6808;49.444;11.034;2023-02-15T00:23:31;-0.20;99.90
13472;DHT22;6808;49.444;11.034;2023-02-15T00:26:10;-0.30;99.90
13472;DHT22;6808;49.444;11.034;2023-02-15T00:28:37;-0.50;99.90
13472;DHT22;6808;49.444;11.034;2023-02-15T00:31:11;-0.40;99.90
13472;DHT22;6808;49.444;11.034;2023-02-15T00:33:37;-0.40;99.90
13472;DHT22;6808;49.444;11.034;2023-02-15T00:36:04;-0.30;99.90
13472;DHT22;6808;49.444;11.034;2023-02-15T00:38:31;-0.40;99.90
13472;DHT22;6808;49.444;11.034;2023-02-15T00:40:58;-0.40;99.90
13472;DHT22;6808;49.444;11.034;2023-02-15T00:43:24;-0.50;99.90
13472;DHT22;6808;49.444;11.034;2023-02-15T00:45:50;-0.50;99.90
13472;DHT22;6808;49.444;11.034;2023-02-15T00:48:16;-0.50;99.90
13472;DHT22;6808;49.444;11.034;2023-02-15T00:50:45;-0.50;99.90
13472;DHT22;6808;49.444;11.034;2023-02-15T00:53:11;-0.50;99.90
13472;DHT22;6808;49.444;11.034;2023-02-15T00:55:37;-0.40;99.90
13472;DHT22;6808;49.444;11.034;2023-02-15T00:58:04;-0.40;99.90
13472;DHT22;6808;49.444;11.034;2023-02-15T01:00:30;-0.30;99.90
13472;DHT22;6808;49.444;11.034;2023-02-15T01:02:55;-0.20;99.90
13472;DHT22;6808;49.444;11.034;2023-02-15T01:05:21;-0.30;99.90
13472;DHT22;6808;49.444;11.034;2023-02-15T01:07:46;-0.30;99.90
13472;DHT22;6808;49.444;11.034;2023-02-15T01:10:12;-0.40;99.90
13472;DHT22;6808;49.444;11.034;2023-02-15T01:12:37;-0.40;99.90
13472;DHT22;6808;49.444;11.034;2023-02-15T01:15:03;-0.40;99.90
13472;DHT22;6808;49.444;11.034;2023-02-15T01:17:28;-0.30;99.90
13472;DHT22;6808;49.444;11.034;2023-02-15T01:19:54;-0.30;99.90
13472;DHT22;6808;49.444;11.034;2023-02-15T01:22:20;-0.30;99.90
13472;DHT22;6808;49.444;11.034;2023-02-15T01:24:48;-0.30;99.90
13472;DHT22;6808;49.444;11.034;2023-02-15T01:27:13;-0.40;99.90
13472;DHT22;6808;49.444;11.034;2023-02-15T01:29:39;-0.30;99.90
13472;DHT22;6808;49.444;11.034;2023-02-15T01:32:04;-0.40;99.90
13472;DHT22;6808;49.444;11.034;2023-02-15T01:34:30;-0.30;99.90
13472;DHT22;6808;49.444;11.034;2023-02-15T01:36:56;-0.30;99.90
13472;DHT22;6808;49.444;11.034;2023-02-15T01:39:21;-0.20;99.90
13472;DHT22;6808;49.444;11.034;2023-02-15T01:41:47;-0.10;99.90
13472;DHT22;6808;49.444;11.034;2023-02-15T01:44:48;-0.10;99.90
13472;DHT22;6808;49.444;11.034;2023-02-15T01:50:06;-0.10;99.90
13472;DHT22;6808;49.444;11.034;2023-02-15T01:52:35;-0.10;99.90
13472;DHT22;6808;49.444;11.034;2023-02-15T01:55:02;-0.10;99.90
13472;DHT22;6808;49.444;11.034;2023-02-15T01:57:28;-0.20;99.90
13472;DHT22;6808;49.444;11.034;2023-02-15T01:59:57;-0.20;99.90
13472;DHT22;6808;49.444;11.034;2023-02-15T02:02:23;-1.00;99.90
13472;DHT22;6808;49.444;11.034;2023-02-15T02:05:00;-0.40;99.90
13472;DHT22;6808;49.444;11.034;2023-02-15T02:07:31;-0.50;99.90
13472;DHT22;6808;49.444;11.034;2023-02-15T02:09:57;-0.60;99.90
13472;DHT22;6808;49.444;11.034;2023-02-15T02:12:23;-0.60;99.90
13472;DHT22;6808;49.444;11.034;2023-02-15T02:14:50;-0.50;99.90
13472;DHT22;6808;49.444;11.034;2023-02-15T02:17:24;-0.50;99.90
13472;DHT22;6808;49.444;11.034;2023-02-15T02:42:25;-0.60;99.90
13472;DHT22;6808;49.444;11.034;2023-02-15T02:45:02;-0.50;99.90
13472;DHT22;6808;49.444;11.034;2023-02-15T02:50:03;-0.60;99.90
13472;DHT22;6808;49.444;11.034;2023-02-15T02:53:08;-0.60;99.90
13472;DHT22;6808;49.444;11.034;2023-02-15T02:55:42;-0.50;99.90
13472;DHT22;6808;49.444;11.034;2023-02-15T02:58:20;-0.70;99.90
13472;DHT22;6808;49.444;11.034;2023-02-15T03:01:02;-0.70;99.90
13472;DHT22;6808;49.444;11.034;2023-02-15T03:03:53;-0.70;99.90
13472;DHT22;6808;49.444;11.034;2023-02-15T03:12:00;-0.70;99.90
13472;DHT22;6808;49.444;11.034;2023-02-15T03:14:26;-0.60;99.90
13472;DHT22;6808;49.444;11.034;2023-02-15T03:16:51;-0.50;99.90
13472;DHT22;6808;49.444;11.034;2023-02-15T03:19:22;-0.50;99.90
13472;DHT22;6808;49.444;11.034;2023-02-15T03:21:57;-0.40;99.90
13472;DHT22;6808;49.444;11.034;2023-02-15T03:24:34;-0.40;99.90
13472;DHT22;6808;49.444;11.034;2023-02-15T03:27:02;-0.30;99.90
13472;DHT22;6808;49.444;11.034;2023-02-15T03:29:29;-0.30;99.90
13472;DHT22;6808;49.444;11.034;2023-02-15T03:32:02;-0.30;99.90
13472;DHT22;6808;49.444;11.034;2023-02-15T03:34:29;-0.30;99.90
13472;DHT22;6808;49.444;11.034;2023-02-15T03:37:00;-0.30;99.90
13472;DHT22;6808;49.444;11.034;2023-02-15T03:44:59;-0.60;99.90
13472;DHT22;6808;49.444;11.034;2023-02-15T03:47:31;-0.60;99.90
13472;DHT22;6808;49.444;11.034;2023-02-15T03:50:13;-0.50;99.90
13472;DHT22;6808;49.444;11.034;2023-02-15T03:53:18;-0.50;99.90
13472;DHT22;6808;49.444;11.034;2023-02-15T03:55:47;-0.60;99.90
13472;DHT22;6808;49.444;11.034;2023-02-15T03:58:13;-0.50;99.90
13472;DHT22;6808;49.444;11.034;2023-02-15T04:01:25;-0.50;99.90
13472;DHT22;6808;49.444;11.034;2023-02-15T04:04:22;-0.50;99.90
13472;DHT22;6808;49.444;11.034;2023-02-15T04:06:49;-0.40;99.90
13472;DHT22;6808;49.444;11.034;2023-02-15T04:09:14;-0.30;99.90
13472;DHT22;6808;49.444;11.034;2023-02-15T04:11:58;-0.30;99.90
13472;DHT22;6808;49.444;11.034;2023-02-15T04:14:24;-0.20;99.90
13472;DHT22;6808;49.444;11.034;2023-02-15T04:17:09;-0.30;99.90
13472;DHT22;6808;49.444;11.034;2023-02-15T04:19:34;-0.40;99.90
13472;DHT22;6808;49.444;11.034;2023-02-15T04:22:19;-0.40;99.90
13472;DHT22;6808;49.444;11.034;2023-02-15T04:25:03;-0.50;99.90
13472;DHT22;6808;49.444;11.034;2023-02-15T04:27:38;-0.60;99.90
13472;DHT22;6808;49.444;11.034;2023-02-15T04:30:05;-0.70;99.90
13472;DHT22;6808;49.444;11.034;2023-02-15T04:32:31;-0.80;99.90
13472;DHT22;6808;49.444;11.034;2023-02-15T04:34:57;-0.90;99.90
13472;DHT22;6808;49.444;11.034;2023-02-15T04:37:22;-1.00;99.90
13472;DHT22;6808;49.444;11.034;2023-02-15T04:39:49;-1.00;99.90
13472;DHT22;6808;49.444;11.034;2023-02-15T04:42:15;-1.10;99.90
13472;DHT22;6808;49.444;11.034;2023-02-15T04:44:41;-1.10;99.90
13472;DHT22;6808;49.444;11.034;2023-02-15T04:47:06;-1.20;99.90
13472;DHT22;6808;49.444;11.034;2023-02-15T04:49:32;-1.20;99.90
13472;DHT22;6808;49.444;11.034;2023-02-15T04:51:57;-1.30;99.90
13472;DHT22;6808;49.444;11.034;2023-02-15T04:54:23;-1.30;99.90
13472;DHT22;6808;49.444;11.034;2023-02-15T04:56:49;-1.30;99.90
13472;DHT22;6808;49.444;11.034;2023-02-15T04:59:14;-1.10;99.90
13472;DHT22;6808;49.444;11.034;2023-02-15T05:01:40;-1.10;99.90
13472;DHT22;6808;49.444;11.034;2023-02-15T05:04:05;-1.00;99.90
13472;DHT22;6808;49.444;11.034;2023-02-15T05:06:31;-1.00;99.90
13472;DHT22;6808;49.444;11.034;2023-02-15T05:08:56;-0.90;99.90
13472;DHT22;6808;49.444;11.034;2023-02-15T05:11:24;-0.90;99.90
13472;DHT22;6808;49.444;11.034;2023-02-15T05:13:50;-0.90;99.90
13472;DHT22;6808;49.444;11.034;2023-02-15T05:16:16;-1.10;99.90
13472;DHT22;6808;49.444;11.034;2023-02-15T05:18:43;-1.20;99.90
13472;DHT22;6808;49.444;11.034;2023-02-15T05:21:13;-1.20;99.90
13472;DHT22;6808;49.444;11.034;2023-02-15T05:23:42;-1.10;99.90
13472;DHT22;6808;49.444;11.034;2023-02-15T05:26:12;-1.00;99.90
13472;DHT22;6808;49.444;11.034;2023-02-15T05:29:10;-1.00;99.90
13472;DHT22;6808;49.444;11.034;2023-02-15T05:31:37;-0.90;99.90
13472;DHT22;6808;49.444;11.034;2023-02-15T05:34:03;-0.90;99.90
13472;DHT22;6808;49.444;11.034;2023-02-15T05:36:29;-0.90;99.90
13472;DHT22;6808;49.444;11.034;2023-02-15T05:38:55;-0.80;99.90
13472;DHT22;6808;49.444;11.034;2023-02-15T05:41:20;-0.80;99.90
13472;DHT22;6808;49.444;11.034;2023-02-15T05:43:46;-0.80;99.90
13472;DHT22;6808;49.444;11.034;2023-02-15T05:46:12;-0.70;99.90
13472;DHT22;6808;49.444;11.034;2023-02-15T05:48:38;-0.70;99.90
13472;DHT22;6808;49.444;11.034;2023-02-15T05:51:06;-0.70;99.90
13472;DHT22;6808;49.444;11.034;2023-02-15T05:53:36;-0.10;99.90
13472;DHT22;6808;49.444;11.034;2023-02-15T05:56:09;-0.50;99.90
13472;DHT22;6808;49.444;11.034;2023-02-15T05:58:38;-0.60;99.90
13472;DHT22;6808;49.444;11.034;2023-02-15T06:01:12;-0.60;99.90
13472;DHT22;6808;49.444;11.034;2023-02-15T06:03:37;-0.70;99.90
13472;DHT22;6808;49.444;11.034;2023-02-15T06:06:03;-0.80;99.90
13472;DHT22;6808;49.444;11.034;2023-02-15T06:08:31;-1.10;99.90
13472;DHT22;6808;49.444;11.034;2023-02-15T06:10:56;-1.20;99.90
13472;DHT22;6808;49.444;11.034;2023-02-15T06:13:22;-1.30;99.90
13472;DHT22;6808;49.444;11.034;2023-02-15T06:15:47;-1.30;99.90
13472;DHT22;6808;49.444;11.034;2023-02-15T06:18:14;-1.30;99.90
13472;DHT22;6808;49.444;11.034;2023-02-15T06:20:39;-1.30;99.90
13472;DHT22;6808;49.444;11.034;2023-02-15T06:23:05;-1.20;99.90
13472;DHT22;6808;49.444;11.034;2023-02-15T06:25:33;-1.20;99.90
13472;DHT22;6808;49.444;11.034;2023-02-15T06:27:59;-1.10;99.90
13472;DHT22;6808;49.444;11.034;2023-02-15T06:30:25;-1.10;99.90
13472;DHT22;6808;49.444;11.034;2023-02-15T06:32:50;-1.10;99.90
13472;DHT22;6808;49.444;11.034;2023-02-15T06:35:16;-1.00;99.90
13472;DHT22;6808;49.444;11.034;2023-02-15T06:37:41;-1.20;99.90
13472;DHT22;6808;49.444;11.034;2023-02-15T06:40:08;-1.20;99.90
13472;DHT22;6808;49.444;11.034;2023-02-15T06:42:33;-1.20;99.90
13472;DHT22;6808;49.444;11.034;2023-02-15T06:44:59;-1.20;99.90
13472;DHT22;6808;49.444;11.034;2023-02-15T06:47:25;-1.10;99.90
13472;DHT22;6808;49.444;11.034;2023-02-15T06:49:51;-1.10;99.90
13472;DHT22;6808;49.444;11.034;2023-02-15T06:52:16;-1.10;99.90
13472;DHT22;6808;49.444;11.034;2023-02-15T06:54:42;-1.10;99.90
13472;DHT22;6808;49.444;11.034;2023-02-15T06:57:09;-1.10;99.90
13472;DHT22;6808;49.444;11.034;2023-02-15T06:59:35;-1.20;99.90
13472;DHT22;6808;49.444;11.034;2023-02-15T07:02:00;-1.10;99.90
13472;DHT22;6808;49.444;11.034;2023-02-15T07:04:26;-1.10;99.90
13472;DHT22;6808;49.444;11.034;2023-02-15T07:06:54;-1.10;99.90
13472;DHT22;6808;49.444;11.034;2023-02-15T07:09:19;-1.00;99.90
13472;DHT22;6808;49.444;11.034;2023-02-15T07:11:45;-1.00;99.90
13472;DHT22;6808;49.444;11.034;2023-02-15T07:14:29;-1.10;99.90
13472;DHT22;6808;49.444;11.034;2023-02-15T07:16:55;-1.00;99.90
13472;DHT22;6808;49.444;11.034;2023-02-15T07:19:20;-1.00;99.90
13472;DHT22;6808;49.444;11.034;2023-02-15T07:21:46;-0.90;99.90
13472;DHT22;6808;49.444;11.034;2023-02-15T07:24:12;-0.90;99.90
13472;DHT22;6808;49.444;11.034;2023-02-15T07:26:37;-0.90;99.90
13472;DHT22;6808;49.444;11.034;2023-02-15T07:29:03;-0.90;99.90
13472;DHT22;6808;49.444;11.034;2023-02-15T07:31:29;-0.90;99.90
13472;DHT22;6808;49.444;11.034;2023-02-15T07:33:54;-1.10;99.90
13472;DHT22;6808;49.444;11.034;2023-02-15T07:36:20;-1.20;99.90
13472;DHT22;6808;49.444;11.034;2023-02-15T07:38:45;-1.20;99.90
13472;DHT22;6808;49.444;11.034;2023-02-15T07:41:13;-1.10;99.90
13472;DHT22;6808;49.444;11.034;2023-02-15T07:43:41;-1.20;99.90
13472;DHT22;6808;49.444;11.034;2023-02-15T07:46:09;-1.20;99.90
13472;DHT22;6808;49.444;11.034;2023-02-15T07:48:35;-1.10;99.90
13472;DHT22;6808;49.444;11.034;2023-02-15T07:51:03;-1.00;99.90
13472;DHT22;6808;49.444;11.034;2023-02-15T07:53:29;-1.00;99.90
13472;DHT22;6808;49.444;11.034;2023-02-15T07:56:02;-0.90;99.90
13472;DHT22;6808;49.444;11.034;2023-02-15T07:58:27;-0.90;99.90
13472;DHT22;6808;49.444;11.034;2023-02-15T08:01:12;-0.80;99.90
13472;DHT22;6808;49.444;11.034;2023-02-15T08:03:38;-0.80;99.90
13472;DHT22;6808;49.444;11.034;2023-02-15T08:06:04;-0.80;99.90
13472;DHT22;6808;49.444;11.034;2023-02-15T08:08:29;-0.80;99.90
13472;DHT22;6808;49.444;11.034;2023-02-15T08:16:51;-0.70;99.90
13472;DHT22;6808;49.444;11.034;2023-02-15T08:19:23;-0.70;99.90
13472;DHT22;6808;49.444;11.034;2023-02-15T08:21:59;-0.80;99.90
13472;DHT22;6808;49.444;11.034;2023-02-15T08:24:32;-0.70;99.90
13472;DHT22;6808;49.444;11.034;2023-02-15T08:26:58;-0.70;99.90
13472;DHT22;6808;49.444;11.034;2023-02-15T08:29:28;-0.70;99.90
13472;DHT22;6808;49.444;11.034;2023-02-15T08:31:56;-0.60;99.90
13472;DHT22;6808;49.444;11.034;2023-02-15T08:34:24;-0.60;99.90
13472;DHT22;6808;49.444;11.034;2023-02-15T08:36:50;-0.70;99.90
13472;DHT22;6808;49.444;11.034;2023-02-15T08:39:16;-0.80;99.90
13472;DHT22;6808;49.444;11.034;2023-02-15T08:41:47;-0.80;99.90
13472;DHT22;6808;49.444;11.034;2023-02-15T08:44:15;-0.90;99.90
13472;DHT22;6808;49.444;11.034;2023-02-15T08:46:42;-0.80;99.90
13472;DHT22;6808;49.444;11.034;2023-02-15T08:49:09;-0.80;99.90
13472;DHT22;6808;49.444;11.034;2023-02-15T08:51:36;-0.70;99.90
13472;DHT22;6808;49.444;11.034;2023-02-15T08:54:05;-0.70;99.90
13472;DHT22;6808;49.444;11.034;2023-02-15T08:56:36;-0.80;99.90
13472;DHT22;6808;49.444;11.034;2023-02-15T08:59:02;-1.00;99.90
13472;DHT22;6808;49.444;11.034;2023-02-15T09:01:30;-0.80;99.90
13472;DHT22;6808;49.444;11.034;2023-02-15T09:03:58;-0.80;99.90
13472;DHT22;6808;49.444;11.034;2023-02-15T09:06:24;-0.80;99.90
13472;DHT22;6808;49.444;11.034;2023-02-15T09:08:50;-0.70;99.90
13472;DHT22;6808;49.444;11.034;2023-02-15T09:11:19;-0.80;99.90
13472;DHT22;6808;49.444;11.034;2023-02-15T09:13:58;-0.80;99.90
13472;DHT22;6808;49.444;11.034;2023-02-15T09:16:27;-0.70;99.90
13472;DHT22;6808;49.444;11.034;2023-02-15T09:18:53;-0.60;99.90
13472;DHT22;6808;49.444;11.034;2023-02-15T09:21:22;-0.50;99.90
13472;DHT22;6808;49.444;11.034;2023-02-15T09:23:50;-0.50;99.90
13472;DHT22;6808;49.444;11.034;2023-02-15T09:26:20;-0.40;99.90
13472;DHT22;6808;49.444;11.034;2023-02-15T09:28:47;-0.30;99.90
13472;DHT22;6808;49.444;11.034;2023-02-15T09:31:18;-0.20;99.90
13472;DHT22;6808;49.444;11.034;2023-02-15T09:33:45;-0.20;99.90
13472;DHT22;6808;49.444;11.034;2023-02-15T09:38:44;-0.10;99.90
13472;DHT22;6808;49.444;11.034;2023-02-15T09:41:50;-0.20;99.90
13472;DHT22;6808;49.444;11.034;2023-02-15T09:52:06;-0.30;99.90
13472;DHT22;6808;49.444;11.034;2023-02-15T09:55:11;-0.30;99.90
13472;DHT22;6808;49.444;11.034;2023-02-15T10:09:02;0.10;99.90
13472;DHT22;6808;49.444;11.034;2023-02-15T10:14:56;0.30;99.90
13472;DHT22;6808;49.444;11.034;2023-02-15T10:20:17;0.40;99.90
13472;DHT22;6808;49.444;11.034;2023-02-15T10:26:33;0.40;99.90
13472;DHT22;6808;49.444;11.034;2023-02-15T10:31:48;0.40;99.90
13472;DHT22;6808;49.444;11.034;2023-02-15T10:34:24;0.30;99.90
13472;DHT22;6808;49.444;11.034;2023-02-15T10:39:46;0.40;99.90
13472;DHT22;6808;49.444;11.034;2023-02-15T10:45:01;0.40;99.90
13472;DHT22;6808;49.444;11.034;2023-02-15T10:47:43;0.40;99.90
13472;DHT22;6808;49.444;11.034;2023-02-15T10:53:13;0.40;99.90
13472;DHT22;6808;49.444;11.034;2023-02-15T10:56:09;0.40;99.90
13472;DHT22;6808;49.444;11.034;2023-02-15T10:58:52;0.40;99.90
13472;DHT22;6808;49.444;11.034;2023-02-15T11:01:30;0.40;99.90
13472;DHT22;6808;49.444;11.034;2023-02-15T11:06:54;0.60;99.90
13472;DHT22;6808;49.444;11.034;2023-02-15T11:09:23;0.80;99.90
13472;DHT22;6808;49.444;11.034;2023-02-15T11:11:52;0.80;99.90
13472;DHT22;6808;49.444;11.034;2023-02-15T11:14:46;0.90;99.90
13472;DHT22;6808;49.444;11.034;2023-02-15T11:17:18;1.00;99.90
13472;DHT22;6808;49.444;11.034;2023-02-15T11:22:32;1.20;99.90
13472;DHT22;6808;49.444;11.034;2023-02-15T11:25:00;1.20;99.90
13472;DHT22;6808;49.444;11.034;2023-02-15T11:27:29;1.40;99.90
13472;DHT22;6808;49.444;11.034;2023-02-15T11:30:10;1.50;99.90
13472;DHT22;6808;49.444;11.034;2023-02-15T11:32:44;1.60;99.90
13472;DHT22;6808;49.444;11.034;2023-02-15T11:37:48;1.70;99.90
13472;DHT22;6808;49.444;11.034;2023-02-15T11:40:28;1.90;99.90
13472;DHT22;6808;49.444;11.034;2023-02-15T11:42:58;1.90;99.90
13472;DHT22;6808;49.444;11.034;2023-02-15T11:45:31;1.90;99.90
13472;DHT22;6808;49.444;11.034;2023-02-15T11:47:59;2.00;99.90
13472;DHT22;6808;49.444;11.034;2023-02-15T11:50:29;2.00;99.90
13472;DHT22;6808;49.444;11.034;2023-02-15T11:53:02;2.00;99.90
13472;DHT22;6808;49.444;11.034;2023-02-15T11:55:29;2.10;99.90
13472;DHT22;6808;49.444;11.034;2023-02-15T11:58:01;2.20;99.90
13472;DHT22;6808;49.444;11.034;2023-02-15T12:00:36;2.20;99.90
13472;DHT22;6808;49.444;11.034;2023-02-15T12:03:28;2.30;99.90
13472;DHT22;6808;49.444;11.034;2023-02-15T12:06:02;2.30;99.90
13472;DHT22;6808;49.444;11.034;2023-02-15T12:08:37;2.30;99.90
13472;DHT22;6808;49.444;11.034;2023-02-15T12:11:09;2.40;99.90
13472;DHT22;6808;49.444;11.034;2023-02-15T12:14:01;2.50;99.90
13472;DHT22;6808;49.444;11.034;2023-02-15T12:16:28;2.50;99.90
13472;DHT22;6808;49.444;11.034;2023-02-15T12:18:57;2.50;99.90
13472;DHT22;6808;49.444;11.034;2023-02-15T12:21:27;2.50;99.90
13472;DHT22;6808;49.444;11.034;2023-02-15T12:24:03;2.40;99.90
13472;DHT22;6808;49.444;11.034;2023-02-15T12:26:31;2.40;99.90
13472;DHT22;6808;49.444;11.034;2023-02-15T12:29:06;2.30;99.90
13472;DHT22;6808;49.444;11.034;2023-02-15T12:31:44;2.50;99.90
13472;DHT22;6808;49.444;11.034;2023-02-15T12:34:30;2.70;99.90
13472;DHT22;6808;49.444;11.034;2023-02-15T12:37:01;2.80;99.90
13472;DHT22;6808;49.444;11.034;2023-02-15T12:39:31;2.90;99.90
13472;DHT22;6808;49.444;11.034;2023-02-15T12:42:03;3.00;99.90
13472;DHT22;6808;49.444;11.034;2023-02-15T12:44:32;2.90;99.90
13472;DHT22;6808;49.444;11.034;2023-02-15T12:47:21;3.00;99.90
13472;DHT22;6808;49.444;11.034;2023-02-15T12:50:11;3.20;99.90
13472;DHT22;6808;49.444;11.034;2023-02-15T12:52:46;3.50;99.90
13472;DHT22;6808;49.444;11.034;2023-02-15T12:55:20;3.60;99.90
13472;DHT22;6808;49.444;11.034;2023-02-15T12:57:46;3.80;99.90
13472;DHT22;6808;49.444;11.034;2023-02-15T13:02:49;4.10;99.90
13472;DHT22;6808;49.444;11.034;2023-02-15T13:13:23;4.20;99.90
13472;DHT22;6808;49.444;11.034;2023-02-15T13:15:56;4.50;99.90
13472;DHT22;6808;49.444;11.034;2023-02-15T13:18:30;4.60;99.90
13472;DHT22;6808;49.444;11.034;2023-02-15T13:20:57;4.50;99.90
13472;DHT22;6808;49.444;11.034;2023-02-15T13:23:27;4.60;99.90
13472;DHT22;6808;49.444;11.034;2023-02-15T13:25:58;4.60;99.90
13472;DHT22;6808;49.444;11.034;2023-02-15T13:28:39;4.70;99.90
13472;DHT22;6808;49.444;11.034;2023-02-15T13:31:13;4.90;99.90
13472;DHT22;6808;49.444;11.034;2023-02-15T13:33:42;4.80;99.90
13472;DHT22;6808;49.444;11.034;2023-02-15T13:36:33;4.80;99.90
13472;DHT22;6808;49.444;11.034;2023-02-15T13:42:02;4.70;99.90
13472;DHT22;6808;49.444;11.034;2023-02-15T13:47:21;5.20;99.90
13472;DHT22;6808;49.444;11.034;2023-02-15T13:52:47;5.40;99.50
13472;DHT22;6808;49.444;11.034;2023-02-15T14:01:20;5.80;99.00
13472;DHT22;6808;49.444;11.034;2023-02-15T14:06:39;5.90;99.00
13472;DHT22;6808;49.444;11.034;2023-02-15T14:19:58;5.10;99.20
13472;DHT22;6808;49.444;11.034;2023-02-15T14:22:40;5.10;99.90
13472;DHT22;6808;49.444;11.034;2023-02-15T14:25:59;5.20;99.90
13472;DHT22;6808;49.444;11.034;2023-02-15T14:28:27;5.40;99.90
13472;DHT22;6808;49.444;11.034;2023-02-15T14:30:55;5.50;99.90
13472;DHT22;6808;49.444;11.034;2023-02-15T14:33:29;5.50;99.20
13472;DHT22;6808;49.444;11.034;2023-02-15T14:35:59;5.40;99.10
13472;DHT22;6808;49.444;11.034;2023-02-15T14:54:10;5.60;99.30
13472;DHT22;6808;49.444;11.034;2023-02-15T14:56:36;5.60;99.50
13472;DHT22;6808;49.444;11.034;2023-02-15T14:59:20;5.60;99.30
13472;DHT22;6808;49.444;11.034;2023-02-15T15:01:55;5.50;99.20
13472;DHT22;6808;49.444;11.034;2023-02-15T15:04:41;5.50;99.30
13472;DHT22;6808;49.444;11.034;2023-02-15T15:07:21;5.40;99.10
13472;DHT22;6808;49.444;11.034;2023-02-15T15:10:23;5.40;99.40
13472;DHT22;6808;49.444;11.034;2023-02-15T15:12:53;5.40;99.60
13472;DHT22;6808;49.444;11.034;2023-02-15T15:18:10;5.30;99.70
13472;DHT22;6808;49.444;11.034;2023-02-15T15:20:55;5.20;99.90
13472;DHT22;6808;49.444;11.034;2023-02-15T15:25:57;5.20;99.90
13472;DHT22;6808;49.444;11.034;2023-02-15T15:34:17;5.10;99.90
13472;DHT22;6808;49.444;11.034;2023-02-15T15:37:13;5.00;99.90
13472;DHT22;6808;49.444;11.034;2023-02-15T15:48:40;4.60;99.90
13472;DHT22;6808;49.444;11.034;2023-02-15T15:51:39;4.50;99.90
13472;DHT22;6808;49.444;11.034;2023-02-15T15:54:05;4.50;99.90
13472;DHT22;6808;49.444;11.034;2023-02-15T15:56:37;4.50;99.90
13472;DHT22;6808;49.444;11.034;2023-02-15T15:59:07;4.40;99.90
13472;DHT22;6808;49.444;11.034;2023-02-15T16:01:42;4.40;99.90
13472;DHT22;6808;49.444;11.034;2023-02-15T16:04:14;4.40;99.90
13472;DHT22;6808;49.444;11.034;2023-02-15T16:06:47;4.40;99.90
13472;DHT22;6808;49.444;11.034;2023-02-15T16:09:17;4.40;99.90
13472;DHT22;6808;49.444;11.034;2023-02-15T16:11:46;4.30;99.90
13472;DHT22;6808;49.444;11.034;2023-02-15T16:14:25;4.20;99.90
13472;DHT22;6808;49.444;11.034;2023-02-15T16:16:55;4.10;99.90
13472;DHT22;6808;49.444;11.034;2023-02-15T16:19:25;4.00;99.90
13472;DHT22;6808;49.444;11.034;2023-02-15T16:21:52;3.90;99.90
13472;DHT22;6808;49.444;11.034;2023-02-15T16:27:25;3.90;99.90
13472;DHT22;6808;49.444;11.034;2023-02-15T16:29:51;3.80;99.90
13472;DHT22;6808;49.444;11.034;2023-02-15T16:32:24;3.70;99.90
13472;DHT22;6808;49.444;11.034;2023-02-15T16:34:59;3.70;99.90
13472;DHT22;6808;49.444;11.034;2023-02-15T16:37:27;3.50;99.90
13472;DHT22;6808;49.444;11.034;2023-02-15T16:39:56;3.40;99.90
13472;DHT22;6808;49.444;11.034;2023-02-15T16:42:22;3.30;99.90
13472;DHT22;6808;49.444;11.034;2023-02-15T16:44:59;3.30;99.90
13472;DHT22;6808;49.444;11.034;2023-02-15T16:47:29;4.10;99.90
13472;DHT22;6808;49.444;11.034;2023-02-15T16:49:59;3.20;99.90
13472;DHT22;6808;49.444;11.034;2023-02-15T16:52:27;3.20;99.90
13472;DHT22;6808;49.444;11.034;2023-02-15T16:54:58;3.10;99.90
13472;DHT22;6808;49.444;11.034;2023-02-15T16:57:34;3.00;99.90
13472;DHT22;6808;49.444;11.034;2023-02-15T17:00:20;2.80;99.90
13472;DHT22;6808;49.444;11.034;2023-02-15T17:03:26;2.70;99.90
13472;DHT22;6808;49.444;11.034;2023-02-15T17:05:55;2.70;99.90
13472;DHT22;6808;49.444;11.034;2023-02-15T17:11:16;2.60;99.90
13472;DHT22;6808;49.444;11.034;2023-02-15T17:19:28;2.40;99.90
13472;DHT22;6808;49.444;11.034;2023-02-15T17:21:56;2.30;99.90
13472;DHT22;6808;49.444;11.034;2023-02-15T17:24:32;2.30;99.90
13472;DHT22;6808;49.444;11.034;2023-02-15T17:27:03;2.20;99.90
13472;DHT22;6808;49.444;11.034;2023-02-15T17:29:40;2.20;99.90
13472;DHT22;6808;49.444;11.034;2023-02-15T17:32:14;2.10;99.90
13472;DHT22;6808;49.444;11.034;2023-02-15T17:34:42;2.00;99.90
13472;DHT22;6808;49.444;11.034;2023-02-15T17:37:25;1.90;99.90
13472;DHT22;6808;49.444;11.034;2023-02-15T17:39:51;1.90;99.90
13472;DHT22;6808;49.444;11.034;2023-02-15T17:42:16;1.80;99.90
13472;DHT22;6808;49.444;11.034;2023-02-15T17:44:42;1.60;99.90
13472;DHT22;6808;49.444;11.034;2023-02-15T17:47:13;1.60;99.90
13472;DHT22;6808;49.444;11.034;2023-02-15T17:49:40;1.60;99.90
13472;DHT22;6808;49.444;11.034;2023-02-15T17:52:08;1.50;99.90
13472;DHT22;6808;49.444;11.034;2023-02-15T17:54:34;1.30;99.90
13472;DHT22;6808;49.444;11.034;2023-02-15T17:57:18;1.30;99.90
13472;DHT22;6808;49.444;11.034;2023-02-15T17:59:44;1.40;99.90
13472;DHT22;6808;49.444;11.034;2023-02-15T18:02:33;1.30;99.90
13472;DHT22;6808;49.444;11.034;2023-02-15T18:05:18;1.20;99.90
13472;DHT22;6808;49.444;11.034;2023-02-15T18:08:02;1.10;99.90
13472;DHT22;6808;49.444;11.034;2023-02-15T18:10:46;0.90;99.90
13472;DHT22;6808;49.444;11.034;2023-02-15T18:13:30;0.70;99.90
13472;DHT22;6808;49.444;11.034;2023-02-15T18:15:56;0.60;99.90
13472;DHT22;6808;49.444;11.034;2023-02-15T18:18:22;0.60;99.90
13472;DHT22;6808;49.444;11.034;2023-02-15T18:20:49;0.60;99.90
13472;DHT22;6808;49.444;11.034;2023-02-15T18:23:16;0.60;99.90
13472;DHT22;6808;49.444;11.034;2023-02-15T18:25:42;0.60;99.90
13472;DHT22;6808;49.444;11.034;2023-02-15T18:28:08;0.50;99.90
13472;DHT22;6808;49.444;11.034;2023-02-15T18:30:39;0.60;99.90
13472;DHT22;6808;49.444;11.034;2023-02-15T18:34:03;0.60;99.90
13472;DHT22;6808;49.444;11.034;2023-02-15T18:36:16;0.60;99.90
13472;DHT22;6808;49.444;11.034;2023-02-15T18:38:42;0.60;99.90
13472;DHT22;6808;49.444;11.034;2023-02-15T18:41:15;0.60;99.90
13472;DHT22;6808;49.444;11.034;2023-02-15T18:43:41;0.50;99.90
13472;DHT22;6808;49.444;11.034;2023-02-15T18:46:07;0.50;99.90
13472;DHT22;6808;49.444;11.034;2023-02-15T18:48:32;0.50;99.90
13472;DHT22;6808;49.444;11.034;2023-02-15T18:50:58;0.60;99.90
13472;DHT22;6808;49.444;11.034;2023-02-15T18:53:24;0.70;99.90
13472;DHT22;6808;49.444;11.034;2023-02-15T18:55:49;0.70;99.90
13472;DHT22;6808;49.444;11.034;2023-02-15T18:58:20;0.70;99.90
13472;DHT22;6808;49.444;11.034;2023-02-15T19:00:46;0.60;99.90
13472;DHT22;6808;49.444;11.034;2023-02-15T19:03:13;0.60;99.90
13472;DHT22;6808;49.444;11.034;2023-02-15T19:05:41;0.60;99.90